sensor_id;sensor_type;location;lat;lon;timestamp;P1;durP1;ratioP1;P2;durP2;ratioP2
17151;SDS011;8691;50.828;4.700;2023-09-30T00:01:00;5.33;;;2.70;;
17151;SDS011;8691;50.828;4.700;2023-09-30T00:03:28;3.97;;;2.93;;
17151;SDS011;8691;50.828;4.700;2023-09-30T00:05:55;3.95;;;2.78;;
17151;SDS011;8691;50.828;4.700;2023-09-30T00:08:22;4.22;;;2.60;;
17151;SDS011;8691;50.828;4.700;2023-09-30T00:10:50;4.25;;;2.90;;
17151;SDS011;8691;50.828;4.700;2023-09-30T00:13:16;4.03;;;2.67;;
17151;SDS011;8691;50.828;4.700;2023-09-30T00:15:44;2.60;;;2.35;;
17151;SDS011;8691;50.828;4.700;2023-09-30T00:18:10;5.13;;;2.70;;
17151;SDS011;8691;50.828;4.700;2023-09-30T00:20:38;3.38;;;2.40;;
17151;SDS011;8691;50.828;4.700;2023-09-30T00:23:04;3.13;;;2.37;;
17151;SDS011;8691;50.828;4.700;2023-09-30T00:25:34;3.10;;;2.57;;
17151;SDS011;8691;50.828;4.700;2023-09-30T00:27:58;3.33;;;2.40;;
17151;SDS011;8691;50.828;4.700;2023-09-30T00:30:25;4.10;;;2.90;;
17151;SDS011;8691;50.828;4.700;2023-09-30T00:32:53;2.60;;;2.10;;
17151;SDS011;8691;50.828;4.700;2023-09-30T00:35:20;5.43;;;2.73;;
17151;SDS011;8691;50.828;4.700;2023-09-30T00:37:47;3.70;;;2.50;;
17151;SDS011;8691;50.828;4.700;2023-09-30T00:40:14;3.25;;;2.30;;
17151;SDS011;8691;50.828;4.700;2023-09-30T00:42:41;4.40;;;2.30;;
17151;SDS011;8691;50.828;4.700;2023-09-30T00:45:08;4.35;;;2.40;;
17151;SDS011;8691;50.828;4.700;2023-09-30T00:47:35;3.10;;;2.20;;
17151;SDS011;8691;50.828;4.700;2023-09-30T00:50:02;2.33;;;2.10;;
17151;SDS011;8691;50.828;4.700;2023-09-30T00:52:30;3.17;;;2.30;;
17151;SDS011;8691;50.828;4.700;2023-09-30T00:54:56;2.90;;;2.13;;
17151;SDS011;8691;50.828;4.700;2023-09-30T00:57:23;5.20;;;2.60;;
17151;SDS011;8691;50.828;4.700;2023-09-30T00:59:50;3.00;;;2.30;;
17151;SDS011;8691;50.828;4.700;2023-09-30T01:02:17;3.38;;;2.30;;
17151;SDS011;8691;50.828;4.700;2023-09-30T01:04:44;3.75;;;2.40;;
17151;SDS011;8691;50.828;4.700;2023-09-30T01:07:11;5.15;;;2.50;;
17151;SDS011;8691;50.828;4.700;2023-09-30T01:09:37;3.75;;;2.20;;
17151;SDS011;8691;50.828;4.700;2023-09-30T01:12:05;6.28;;;2.40;;
17151;SDS011;8691;50.828;4.700;2023-09-30T01:14:32;4.60;;;2.67;;
17151;SDS011;8691;50.828;4.700;2023-09-30T01:16:59;3.23;;;2.03;;
17151;SDS011;8691;50.828;4.700;2023-09-30T01:19:25;3.53;;;2.62;;
17151;SDS011;8691;50.828;4.700;2023-09-30T01:21:56;3.50;;;2.40;;
17151;SDS011;8691;50.828;4.700;2023-09-30T01:24:22;3.42;;;2.30;;
17151;SDS011;8691;50.828;4.700;2023-09-30T01:26:49;5.88;;;2.50;;
17151;SDS011;8691;50.828;4.700;2023-09-30T01:29:16;4.28;;;2.45;;
17151;SDS011;8691;50.828;4.700;2023-09-30T01:31:43;2.53;;;2.22;;
17151;SDS011;8691;50.828;4.700;2023-09-30T01:34:10;4.40;;;2.20;;
17151;SDS011;8691;50.828;4.700;2023-09-30T01:36:37;4.35;;;2.88;;
17151;SDS011;8691;50.828;4.700;2023-09-30T01:39:04;3.75;;;2.50;;
17151;SDS011;8691;50.828;4.700;2023-09-30T01:41:31;4.37;;;2.40;;
17151;SDS011;8691;50.828;4.700;2023-09-30T01:43:58;5.68;;;2.67;;
17151;SDS011;8691;50.828;4.700;2023-09-30T01:46:25;4.68;;;2.80;;
17151;SDS011;8691;50.828;4.700;2023-09-30T01:48:52;4.03;;;2.80;;
17151;SDS011;8691;50.828;4.700;2023-09-30T01:51:19;3.20;;;2.62;;
17151;SDS011;8691;50.828;4.700;2023-09-30T01:53:46;5.37;;;2.33;;
17151;SDS011;8691;50.828;4.700;2023-09-30T01:56:13;3.97;;;2.60;;
17151;SDS011;8691;50.828;4.700;2023-09-30T01:58:40;3.97;;;2.50;;
17151;SDS011;8691;50.828;4.700;2023-09-30T02:01:07;4.20;;;2.62;;
17151;SDS011;8691;50.828;4.700;2023-09-30T02:03:34;4.18;;;2.80;;
17151;SDS011;8691;50.828;4.700;2023-09-30T02:06:01;4.40;;;3.00;;
17151;SDS011;8691;50.828;4.700;2023-09-30T02:08:28;3.45;;;2.55;;
17151;SDS011;8691;50.828;4.700;2023-09-30T02:10:55;3.53;;;2.67;;
17151;SDS011;8691;50.828;4.700;2023-09-30T02:13:22;5.30;;;2.80;;
17151;SDS011;8691;50.828;4.700;2023-09-30T02:15:48;5.32;;;3.17;;
17151;SDS011;8691;50.828;4.700;2023-09-30T02:18:15;5.15;;;3.00;;
17151;SDS011;8691;50.828;4.700;2023-09-30T02:20:42;3.53;;;2.67;;
17151;SDS011;8691;50.828;4.700;2023-09-30T02:23:09;6.05;;;3.00;;
17151;SDS011;8691;50.828;4.700;2023-09-30T02:25:36;5.03;;;2.30;;
17151;SDS011;8691;50.828;4.700;2023-09-30T02:28:08;5.07;;;3.30;;
17151;SDS011;8691;50.828;4.700;2023-09-30T02:30:35;4.45;;;3.03;;
17151;SDS011;8691;50.828;4.700;2023-09-30T02:33:02;5.33;;;3.53;;
17151;SDS011;8691;50.828;4.700;2023-09-30T02:35:29;5.50;;;3.40;;
17151;SDS011;8691;50.828;4.700;2023-09-30T02:37:56;5.15;;;4.05;;
17151;SDS011;8691;50.828;4.700;2023-09-30T02:40:23;6.70;;;3.80;;
17151;SDS011;8691;50.828;4.700;2023-09-30T02:42:50;5.93;;;4.00;;
17151;SDS011;8691;50.828;4.700;2023-09-30T02:45:17;4.53;;;3.90;;
17151;SDS011;8691;50.828;4.700;2023-09-30T02:47:44;4.90;;;3.55;;
17151;SDS011;8691;50.828;4.700;2023-09-30T02:50:11;5.47;;;3.77;;
17151;SDS011;8691;50.828;4.700;2023-09-30T02:52:38;5.70;;;4.22;;
17151;SDS011;8691;50.828;4.700;2023-09-30T02:55:08;6.60;;;4.50;;
17151;SDS011;8691;50.828;4.700;2023-09-30T02:57:37;5.38;;;4.18;;
17151;SDS011;8691;50.828;4.700;2023-09-30T03:00:04;7.62;;;4.00;;
17151;SDS011;8691;50.828;4.700;2023-09-30T03:02:36;5.97;;;3.63;;
17151;SDS011;8691;50.828;4.700;2023-09-30T03:05:03;4.50;;;4.10;;
17151;SDS011;8691;50.828;4.700;2023-09-30T03:07:30;5.53;;;4.37;;
17151;SDS011;8691;50.828;4.700;2023-09-30T03:09:57;5.00;;;4.10;;
17151;SDS011;8691;50.828;4.700;2023-09-30T03:12:24;5.18;;;3.80;;
17151;SDS011;8691;50.828;4.700;2023-09-30T03:14:51;5.95;;;4.00;;
17151;SDS011;8691;50.828;4.700;2023-09-30T03:17:19;5.75;;;3.72;;
17151;SDS011;8691;50.828;4.700;2023-09-30T03:19:45;6.23;;;3.77;;
17151;SDS011;8691;50.828;4.700;2023-09-30T03:22:13;4.28;;;3.50;;
17151;SDS011;8691;50.828;4.700;2023-09-30T03:24:39;4.83;;;4.00;;
17151;SDS011;8691;50.828;4.700;2023-09-30T03:27:06;6.50;;;4.10;;
17151;SDS011;8691;50.828;4.700;2023-09-30T03:29:35;5.22;;;3.78;;
17151;SDS011;8691;50.828;4.700;2023-09-30T03:32:01;4.75;;;3.75;;
17151;SDS011;8691;50.828;4.700;2023-09-30T03:34:27;3.35;;;3.05;;
17151;SDS011;8691;50.828;4.700;2023-09-30T03:36:55;4.32;;;3.17;;
17151;SDS011;8691;50.828;4.700;2023-09-30T03:39:21;4.43;;;3.33;;
17151;SDS011;8691;50.828;4.700;2023-09-30T03:41:48;5.20;;;4.18;;
17151;SDS011;8691;50.828;4.700;2023-09-30T03:44:15;4.77;;;4.30;;
17151;SDS011;8691;50.828;4.700;2023-09-30T03:46:42;7.80;;;3.75;;
17151;SDS011;8691;50.828;4.700;2023-09-30T03:49:09;5.55;;;4.25;;
17151;SDS011;8691;50.828;4.700;2023-09-30T03:51:36;6.97;;;3.95;;
17151;SDS011;8691;50.828;4.700;2023-09-30T03:54:03;6.95;;;4.65;;
17151;SDS011;8691;50.828;4.700;2023-09-30T03:56:30;7.17;;;4.90;;
17151;SDS011;8691;50.828;4.700;2023-09-30T03:58:57;6.13;;;4.67;;
17151;SDS011;8691;50.828;4.700;2023-09-30T04:01:24;7.35;;;5.32;;
17151;SDS011;8691;50.828;4.700;2023-09-30T04:03:50;6.07;;;4.50;;
17151;SDS011;8691;50.828;4.700;2023-09-30T04:06:17;7.22;;;5.40;;
17151;SDS011;8691;50.828;4.700;2023-09-30T04:08:45;8.80;;;5.90;;
17151;SDS011;8691;50.828;4.700;2023-09-30T04:11:12;7.87;;;5.87;;
17151;SDS011;8691;50.828;4.700;2023-09-30T04:13:39;7.30;;;6.00;;
17151;SDS011;8691;50.828;4.700;2023-09-30T04:16:05;9.63;;;5.50;;
17151;SDS011;8691;50.828;4.700;2023-09-30T04:18:32;6.90;;;4.90;;
17151;SDS011;8691;50.828;4.700;2023-09-30T04:20:59;5.83;;;4.70;;
17151;SDS011;8691;50.828;4.700;2023-09-30T04:23:26;7.35;;;5.10;;
17151;SDS011;8691;50.828;4.700;2023-09-30T04:25:54;5.88;;;4.60;;
17151;SDS011;8691;50.828;4.700;2023-09-30T04:28:21;6.43;;;4.40;;
17151;SDS011;8691;50.828;4.700;2023-09-30T04:30:49;7.00;;;3.57;;
17151;SDS011;8691;50.828;4.700;2023-09-30T04:33:16;7.55;;;5.30;;
17151;SDS011;8691;50.828;4.700;2023-09-30T04:35:43;7.18;;;5.18;;
17151;SDS011;8691;50.828;4.700;2023-09-30T04:38:10;7.72;;;5.60;;
17151;SDS011;8691;50.828;4.700;2023-09-30T04:40:36;9.48;;;6.53;;
17151;SDS011;8691;50.828;4.700;2023-09-30T04:43:03;7.83;;;5.07;;
17151;SDS011;8691;50.828;4.700;2023-09-30T04:45:30;8.77;;;5.95;;
17151;SDS011;8691;50.828;4.700;2023-09-30T04:47:57;7.82;;;6.05;;
17151;SDS011;8691;50.828;4.700;2023-09-30T04:50:24;8.60;;;6.35;;
17151;SDS011;8691;50.828;4.700;2023-09-30T04:52:52;8.07;;;4.77;;
17151;SDS011;8691;50.828;4.700;2023-09-30T04:55:19;11.12;;;7.07;;
17151;SDS011;8691;50.828;4.700;2023-09-30T04:57:47;9.55;;;7.00;;
17151;SDS011;8691;50.828;4.700;2023-09-30T05:00:14;8.83;;;7.30;;
17151;SDS011;8691;50.828;4.700;2023-09-30T05:02:41;11.93;;;8.17;;
17151;SDS011;8691;50.828;4.700;2023-09-30T05:05:08;11.75;;;8.02;;
17151;SDS011;8691;50.828;4.700;2023-09-30T05:07:35;10.75;;;7.40;;
17151;SDS011;8691;50.828;4.700;2023-09-30T05:10:02;11.55;;;7.62;;
17151;SDS011;8691;50.828;4.700;2023-09-30T05:12:29;10.23;;;7.30;;
17151;SDS011;8691;50.828;4.700;2023-09-30T05:14:56;13.43;;;8.20;;
17151;SDS011;8691;50.828;4.700;2023-09-30T05:17:22;9.65;;;7.75;;
17151;SDS011;8691;50.828;4.700;2023-09-30T05:19:50;9.30;;;7.10;;
17151;SDS011;8691;50.828;4.700;2023-09-30T05:22:18;10.60;;;8.10;;
17151;SDS011;8691;50.828;4.700;2023-09-30T05:24:44;11.00;;;8.07;;
17151;SDS011;8691;50.828;4.700;2023-09-30T05:27:11;12.77;;;8.55;;
17151;SDS011;8691;50.828;4.700;2023-09-30T05:29:38;11.35;;;8.23;;
17151;SDS011;8691;50.828;4.700;2023-09-30T05:32:06;9.90;;;8.35;;
17151;SDS011;8691;50.828;4.700;2023-09-30T05:34:33;10.48;;;8.02;;
17151;SDS011;8691;50.828;4.700;2023-09-30T05:37:01;11.60;;;8.70;;
17151;SDS011;8691;50.828;4.700;2023-09-30T05:39:28;12.87;;;8.30;;
17151;SDS011;8691;50.828;4.700;2023-09-30T05:41:55;11.75;;;8.20;;
17151;SDS011;8691;50.828;4.700;2023-09-30T05:44:21;11.05;;;7.90;;
17151;SDS011;8691;50.828;4.700;2023-09-30T05:46:49;10.30;;;7.95;;
17151;SDS011;8691;50.828;4.700;2023-09-30T05:49:16;11.15;;;7.93;;
17151;SDS011;8691;50.828;4.700;2023-09-30T05:51:43;11.55;;;7.88;;
17151;SDS011;8691;50.828;4.700;2023-09-30T05:54:10;9.90;;;8.00;;
17151;SDS011;8691;50.828;4.700;2023-09-30T05:56:37;10.83;;;8.00;;
17151;SDS011;8691;50.828;4.700;2023-09-30T05:59:04;11.43;;;7.62;;
17151;SDS011;8691;50.828;4.700;2023-09-30T06:01:32;11.03;;;7.60;;
17151;SDS011;8691;50.828;4.700;2023-09-30T06:03:59;11.50;;;7.77;;
17151;SDS011;8691;50.828;4.700;2023-09-30T06:06:26;10.50;;;7.47;;
17151;SDS011;8691;50.828;4.700;2023-09-30T06:08:52;12.38;;;7.88;;
17151;SDS011;8691;50.828;4.700;2023-09-30T06:11:20;11.85;;;7.70;;
17151;SDS011;8691;50.828;4.700;2023-09-30T06:13:46;9.93;;;7.60;;
17151;SDS011;8691;50.828;4.700;2023-09-30T06:16:13;11.65;;;7.88;;
17151;SDS011;8691;50.828;4.700;2023-09-30T06:18:41;11.90;;;7.50;;
17151;SDS011;8691;50.828;4.700;2023-09-30T06:21:07;12.57;;;7.20;;
17151;SDS011;8691;50.828;4.700;2023-09-30T06:23:35;7.37;;;5.60;;
17151;SDS011;8691;50.828;4.700;2023-09-30T06:26:02;10.02;;;7.35;;
17151;SDS011;8691;50.828;4.700;2023-09-30T06:28:29;10.80;;;7.53;;
17151;SDS011;8691;50.828;4.700;2023-09-30T06:30:56;12.50;;;7.50;;
17151;SDS011;8691;50.828;4.700;2023-09-30T06:33:23;10.52;;;7.30;;
17151;SDS011;8691;50.828;4.700;2023-09-30T06:35:50;10.35;;;7.07;;
17151;SDS011;8691;50.828;4.700;2023-09-30T06:38:18;11.52;;;7.30;;
17151;SDS011;8691;50.828;4.700;2023-09-30T06:40:45;11.98;;;7.10;;
17151;SDS011;8691;50.828;4.700;2023-09-30T06:43:11;12.30;;;7.10;;
17151;SDS011;8691;50.828;4.700;2023-09-30T06:45:39;10.05;;;7.10;;
17151;SDS011;8691;50.828;4.700;2023-09-30T06:48:06;10.38;;;7.00;;
17151;SDS011;8691;50.828;4.700;2023-09-30T06:50:32;10.75;;;7.03;;
17151;SDS011;8691;50.828;4.700;2023-09-30T06:52:59;10.12;;;6.60;;
17151;SDS011;8691;50.828;4.700;2023-09-30T06:55:26;7.90;;;6.27;;
17151;SDS011;8691;50.828;4.700;2023-09-30T06:57:53;9.30;;;5.87;;
17151;SDS011;8691;50.828;4.700;2023-09-30T07:00:20;10.55;;;7.03;;
17151;SDS011;8691;50.828;4.700;2023-09-30T07:02:47;10.40;;;6.57;;
17151;SDS011;8691;50.828;4.700;2023-09-30T07:05:14;8.93;;;6.50;;
17151;SDS011;8691;50.828;4.700;2023-09-30T07:07:42;10.90;;;6.40;;
17151;SDS011;8691;50.828;4.700;2023-09-30T07:10:09;10.73;;;5.80;;
17151;SDS011;8691;50.828;4.700;2023-09-30T07:12:36;9.50;;;6.57;;
17151;SDS011;8691;50.828;4.700;2023-09-30T07:15:04;8.45;;;5.62;;
17151;SDS011;8691;50.828;4.700;2023-09-30T07:17:31;9.30;;;5.80;;
17151;SDS011;8691;50.828;4.700;2023-09-30T07:19:58;8.07;;;5.80;;
17151;SDS011;8691;50.828;4.700;2023-09-30T07:22:25;10.07;;;5.40;;
17151;SDS011;8691;50.828;4.700;2023-09-30T07:24:51;9.20;;;5.37;;
17151;SDS011;8691;50.828;4.700;2023-09-30T07:27:18;8.55;;;5.30;;
17151;SDS011;8691;50.828;4.700;2023-09-30T07:29:45;9.40;;;5.12;;
17151;SDS011;8691;50.828;4.700;2023-09-30T07:32:12;6.83;;;4.53;;
17151;SDS011;8691;50.828;4.700;2023-09-30T07:34:39;8.93;;;5.15;;
17151;SDS011;8691;50.828;4.700;2023-09-30T07:37:05;9.85;;;4.75;;
17151;SDS011;8691;50.828;4.700;2023-09-30T07:39:32;10.93;;;5.23;;
17151;SDS011;8691;50.828;4.700;2023-09-30T07:41:59;9.12;;;5.28;;
17151;SDS011;8691;50.828;4.700;2023-09-30T07:44:26;9.93;;;5.20;;
17151;SDS011;8691;50.828;4.700;2023-09-30T07:46:53;8.67;;;4.90;;
17151;SDS011;8691;50.828;4.700;2023-09-30T07:49:20;10.43;;;5.10;;
17151;SDS011;8691;50.828;4.700;2023-09-30T07:51:47;8.30;;;4.87;;
17151;SDS011;8691;50.828;4.700;2023-09-30T07:54:13;9.67;;;5.03;;
17151;SDS011;8691;50.828;4.700;2023-09-30T07:56:40;9.25;;;4.85;;
17151;SDS011;8691;50.828;4.700;2023-09-30T07:59:07;8.70;;;5.37;;
17151;SDS011;8691;50.828;4.700;2023-09-30T08:01:34;8.95;;;4.10;;
17151;SDS011;8691;50.828;4.700;2023-09-30T08:04:01;8.77;;;4.90;;
17151;SDS011;8691;50.828;4.700;2023-09-30T08:06:29;7.05;;;4.82;;
17151;SDS011;8691;50.828;4.700;2023-09-30T08:08:55;8.47;;;4.93;;
17151;SDS011;8691;50.828;4.700;2023-09-30T08:11:22;9.70;;;4.82;;
17151;SDS011;8691;50.828;4.700;2023-09-30T08:13:49;9.17;;;4.90;;
17151;SDS011;8691;50.828;4.700;2023-09-30T08:16:16;8.43;;;4.53;;
17151;SDS011;8691;50.828;4.700;2023-09-30T08:18:43;8.40;;;4.72;;
17151;SDS011;8691;50.828;4.700;2023-09-30T08:21:10;9.10;;;4.70;;
17151;SDS011;8691;50.828;4.700;2023-09-30T08:23:39;9.30;;;4.90;;
17151;SDS011;8691;50.828;4.700;2023-09-30T08:26:06;8.00;;;4.60;;
17151;SDS011;8691;50.828;4.700;2023-09-30T08:28:33;9.15;;;4.70;;
17151;SDS011;8691;50.828;4.700;2023-09-30T08:31:03;8.52;;;4.50;;
17151;SDS011;8691;50.828;4.700;2023-09-30T08:33:30;10.10;;;4.77;;
17151;SDS011;8691;50.828;4.700;2023-09-30T08:36:01;9.10;;;4.32;;
17151;SDS011;8691;50.828;4.700;2023-09-30T08:38:24;8.43;;;4.50;;
17151;SDS011;8691;50.828;4.700;2023-09-30T08:40:51;8.30;;;4.20;;
17151;SDS011;8691;50.828;4.700;2023-09-30T08:43:19;8.40;;;4.10;;
17151;SDS011;8691;50.828;4.700;2023-09-30T08:45:46;8.37;;;4.00;;
17151;SDS011;8691;50.828;4.700;2023-09-30T08:48:12;10.18;;;4.57;;
17151;SDS011;8691;50.828;4.700;2023-09-30T08:50:39;8.43;;;4.40;;
17151;SDS011;8691;50.828;4.700;2023-09-30T08:53:06;9.77;;;4.65;;
17151;SDS011;8691;50.828;4.700;2023-09-30T08:55:33;9.63;;;4.57;;
17151;SDS011;8691;50.828;4.700;2023-09-30T08:58:00;9.17;;;4.27;;
17151;SDS011;8691;50.828;4.700;2023-09-30T09:00:27;8.65;;;4.47;;
17151;SDS011;8691;50.828;4.700;2023-09-30T09:02:53;9.05;;;4.50;;
17151;SDS011;8691;50.828;4.700;2023-09-30T09:05:20;9.32;;;4.10;;
17151;SDS011;8691;50.828;4.700;2023-09-30T09:07:47;10.20;;;4.07;;
17151;SDS011;8691;50.828;4.700;2023-09-30T09:10:14;8.23;;;3.63;;
17151;SDS011;8691;50.828;4.700;2023-09-30T09:12:41;8.52;;;3.70;;
17151;SDS011;8691;50.828;4.700;2023-09-30T09:15:19;9.40;;;4.05;;
17151;SDS011;8691;50.828;4.700;2023-09-30T09:17:40;8.57;;;3.95;;
17151;SDS011;8691;50.828;4.700;2023-09-30T09:20:07;9.47;;;4.23;;
17151;SDS011;8691;50.828;4.700;2023-09-30T09:22:41;7.53;;;3.60;;
17151;SDS011;8691;50.828;4.700;2023-09-30T09:25:08;12.37;;;4.40;;
17151;SDS011;8691;50.828;4.700;2023-09-30T09:27:35;10.02;;;4.05;;
17151;SDS011;8691;50.828;4.700;2023-09-30T09:30:23;9.52;;;3.97;;
17151;SDS011;8691;50.828;4.700;2023-09-30T09:32:59;8.75;;;4.18;;
17151;SDS011;8691;50.828;4.700;2023-09-30T09:35:28;8.23;;;3.67;;
17151;SDS011;8691;50.828;4.700;2023-09-30T09:38:01;8.47;;;3.93;;
17151;SDS011;8691;50.828;4.700;2023-09-30T09:40:30;8.47;;;3.93;;
17151;SDS011;8691;50.828;4.700;2023-09-30T09:42:58;7.90;;;3.62;;
17151;SDS011;8691;50.828;4.700;2023-09-30T09:45:25;8.43;;;3.73;;
17151;SDS011;8691;50.828;4.700;2023-09-30T09:47:51;7.95;;;3.70;;
17151;SDS011;8691;50.828;4.700;2023-09-30T09:50:18;9.15;;;3.78;;
17151;SDS011;8691;50.828;4.700;2023-09-30T09:52:45;6.20;;;3.13;;
17151;SDS011;8691;50.828;4.700;2023-09-30T09:55:12;7.60;;;3.38;;
17151;SDS011;8691;50.828;4.700;2023-09-30T09:57:38;6.50;;;3.42;;
17151;SDS011;8691;50.828;4.700;2023-09-30T10:00:05;6.60;;;3.00;;
17151;SDS011;8691;50.828;4.700;2023-09-30T10:02:33;7.40;;;3.22;;
17151;SDS011;8691;50.828;4.700;2023-09-30T10:05:00;8.62;;;3.25;;
17151;SDS011;8691;50.828;4.700;2023-09-30T10:07:29;5.80;;;2.90;;
17151;SDS011;8691;50.828;4.700;2023-09-30T10:09:55;9.00;;;3.17;;
17151;SDS011;8691;50.828;4.700;2023-09-30T10:12:21;8.00;;;2.97;;
17151;SDS011;8691;50.828;4.700;2023-09-30T10:14:49;6.70;;;2.75;;
17151;SDS011;8691;50.828;4.700;2023-09-30T10:17:15;6.63;;;2.80;;
17151;SDS011;8691;50.828;4.700;2023-09-30T10:20:25;7.85;;;2.85;;
17151;SDS011;8691;50.828;4.700;2023-09-30T10:22:30;6.43;;;3.03;;
17151;SDS011;8691;50.828;4.700;2023-09-30T10:24:58;6.18;;;2.88;;
17151;SDS011;8691;50.828;4.700;2023-09-30T10:29:58;6.85;;;2.35;;
17151;SDS011;8691;50.828;4.700;2023-09-30T10:35:22;6.85;;;2.80;;
17151;SDS011;8691;50.828;4.700;2023-09-30T10:40:48;5.57;;;2.47;;
17151;SDS011;8691;50.828;4.700;2023-09-30T10:43:31;6.17;;;2.60;;
17151;SDS011;8691;50.828;4.700;2023-09-30T10:45:57;4.23;;;2.27;;
17151;SDS011;8691;50.828;4.700;2023-09-30T10:50:57;6.40;;;2.55;;
17151;SDS011;8691;50.828;4.700;2023-09-30T10:53:24;6.73;;;2.50;;
17151;SDS011;8691;50.828;4.700;2023-09-30T10:55:54;5.17;;;2.57;;
17151;SDS011;8691;50.828;4.700;2023-09-30T10:58:20;8.40;;;2.45;;
17151;SDS011;8691;50.828;4.700;2023-09-30T11:00:53;6.18;;;2.80;;
17151;SDS011;8691;50.828;4.700;2023-09-30T11:03:20;5.38;;;2.92;;
17151;SDS011;8691;50.828;4.700;2023-09-30T11:05:47;6.53;;;2.62;;
17151;SDS011;8691;50.828;4.700;2023-09-30T11:08:15;6.07;;;2.70;;
17151;SDS011;8691;50.828;4.700;2023-09-30T11:10:48;6.12;;;2.70;;
17151;SDS011;8691;50.828;4.700;2023-09-30T11:13:15;7.25;;;2.62;;
17151;SDS011;8691;50.828;4.700;2023-09-30T11:15:43;5.27;;;2.10;;
17151;SDS011;8691;50.828;4.700;2023-09-30T11:18:15;6.28;;;2.17;;
17151;SDS011;8691;50.828;4.700;2023-09-30T11:20:42;7.00;;;2.47;;
17151;SDS011;8691;50.828;4.700;2023-09-30T11:23:10;6.32;;;2.30;;
17151;SDS011;8691;50.828;4.700;2023-09-30T11:25:37;6.13;;;2.20;;
17151;SDS011;8691;50.828;4.700;2023-09-30T11:28:14;5.22;;;2.03;;
17151;SDS011;8691;50.828;4.700;2023-09-30T11:30:56;6.30;;;2.45;;
17151;SDS011;8691;50.828;4.700;2023-09-30T11:33:22;7.72;;;2.30;;
17151;SDS011;8691;50.828;4.700;2023-09-30T11:35:57;6.13;;;2.20;;
17151;SDS011;8691;50.828;4.700;2023-09-30T11:38:34;5.40;;;2.13;;
17151;SDS011;8691;50.828;4.700;2023-09-30T11:40:59;4.75;;;2.20;;
17151;SDS011;8691;50.828;4.700;2023-09-30T11:43:28;5.70;;;2.13;;
17151;SDS011;8691;50.828;4.700;2023-09-30T11:46:08;5.25;;;2.10;;
17151;SDS011;8691;50.828;4.700;2023-09-30T11:48:55;4.47;;;2.23;;
17151;SDS011;8691;50.828;4.700;2023-09-30T11:51:07;5.38;;;2.30;;
17151;SDS011;8691;50.828;4.700;2023-09-30T11:53:35;5.20;;;2.30;;
17151;SDS011;8691;50.828;4.700;2023-09-30T11:56:01;4.97;;;1.90;;
17151;SDS011;8691;50.828;4.700;2023-09-30T11:58:28;5.40;;;2.30;;
17151;SDS011;8691;50.828;4.700;2023-09-30T12:00:55;4.90;;;2.00;;
17151;SDS011;8691;50.828;4.700;2023-09-30T12:03:22;5.47;;;2.20;;
17151;SDS011;8691;50.828;4.700;2023-09-30T12:05:49;3.92;;;2.10;;
17151;SDS011;8691;50.828;4.700;2023-09-30T12:08:15;7.80;;;2.30;;
17151;SDS011;8691;50.828;4.700;2023-09-30T12:10:42;7.00;;;2.33;;
17151;SDS011;8691;50.828;4.700;2023-09-30T12:13:09;5.65;;;1.98;;
17151;SDS011;8691;50.828;4.700;2023-09-30T12:15:36;5.83;;;2.47;;
17151;SDS011;8691;50.828;4.700;2023-09-30T12:18:03;5.03;;;1.90;;
17151;SDS011;8691;50.828;4.700;2023-09-30T12:20:30;4.20;;;1.80;;
17151;SDS011;8691;50.828;4.700;2023-09-30T12:22:57;5.17;;;2.10;;
17151;SDS011;8691;50.828;4.700;2023-09-30T12:25:23;4.47;;;1.97;;
17151;SDS011;8691;50.828;4.700;2023-09-30T12:27:50;5.15;;;2.75;;
17151;SDS011;8691;50.828;4.700;2023-09-30T12:30:18;5.57;;;1.90;;
17151;SDS011;8691;50.828;4.700;2023-09-30T12:32:45;3.47;;;1.90;;
17151;SDS011;8691;50.828;4.700;2023-09-30T12:35:12;5.65;;;2.22;;
17151;SDS011;8691;50.828;4.700;2023-09-30T12:37:38;4.88;;;2.10;;
17151;SDS011;8691;50.828;4.700;2023-09-30T12:40:08;5.55;;;2.20;;
17151;SDS011;8691;50.828;4.700;2023-09-30T12:42:32;6.37;;;2.10;;
17151;SDS011;8691;50.828;4.700;2023-09-30T12:44:59;6.03;;;2.50;;
17151;SDS011;8691;50.828;4.700;2023-09-30T12:47:26;4.37;;;1.90;;
17151;SDS011;8691;50.828;4.700;2023-09-30T12:49:52;5.75;;;2.20;;
17151;SDS011;8691;50.828;4.700;2023-09-30T12:52:20;5.93;;;2.20;;
17151;SDS011;8691;50.828;4.700;2023-09-30T12:54:46;4.88;;;2.00;;
17151;SDS011;8691;50.828;4.700;2023-09-30T12:57:14;6.00;;;2.10;;
17151;SDS011;8691;50.828;4.700;2023-09-30T12:59:41;5.83;;;2.03;;
17151;SDS011;8691;50.828;4.700;2023-09-30T13:02:08;4.57;;;1.90;;
17151;SDS011;8691;50.828;4.700;2023-09-30T13:04:36;5.80;;;2.20;;
17151;SDS011;8691;50.828;4.700;2023-09-30T13:07:03;5.45;;;2.03;;
17151;SDS011;8691;50.828;4.700;2023-09-30T13:09:29;4.07;;;2.10;;
17151;SDS011;8691;50.828;4.700;2023-09-30T13:11:56;4.97;;;2.10;;
17151;SDS011;8691;50.828;4.700;2023-09-30T13:14:23;4.80;;;1.93;;
17151;SDS011;8691;50.828;4.700;2023-09-30T13:16:50;3.42;;;1.83;;
17151;SDS011;8691;50.828;4.700;2023-09-30T13:19:17;4.80;;;2.22;;
17151;SDS011;8691;50.828;4.700;2023-09-30T13:21:44;4.37;;;1.87;;
17151;SDS011;8691;50.828;4.700;2023-09-30T13:24:11;4.23;;;1.90;;
17151;SDS011;8691;50.828;4.700;2023-09-30T13:26:38;3.85;;;1.73;;
17151;SDS011;8691;50.828;4.700;2023-09-30T13:29:04;4.20;;;1.90;;
17151;SDS011;8691;50.828;4.700;2023-09-30T13:31:31;4.40;;;2.40;;
17151;SDS011;8691;50.828;4.700;2023-09-30T13:33:58;4.28;;;1.90;;
17151;SDS011;8691;50.828;4.700;2023-09-30T13:36:25;3.97;;;1.98;;
17151;SDS011;8691;50.828;4.700;2023-09-30T13:38:52;4.67;;;2.03;;
17151;SDS011;8691;50.828;4.700;2023-09-30T13:41:19;6.72;;;2.38;;
17151;SDS011;8691;50.828;4.700;2023-09-30T13:43:46;4.43;;;1.83;;
17151;SDS011;8691;50.828;4.700;2023-09-30T13:46:13;4.15;;;2.28;;
17151;SDS011;8691;50.828;4.700;2023-09-30T13:48:40;4.22;;;2.00;;
17151;SDS011;8691;50.828;4.700;2023-09-30T13:51:08;5.50;;;2.10;;
17151;SDS011;8691;50.828;4.700;2023-09-30T13:53:36;6.93;;;3.17;;
17151;SDS011;8691;50.828;4.700;2023-09-30T13:56:02;4.03;;;1.97;;
17151;SDS011;8691;50.828;4.700;2023-09-30T13:58:34;5.15;;;2.08;;
17151;SDS011;8691;50.828;4.700;2023-09-30T14:01:01;4.63;;;2.03;;
17151;SDS011;8691;50.828;4.700;2023-09-30T14:03:28;3.50;;;1.90;;
17151;SDS011;8691;50.828;4.700;2023-09-30T14:05:55;5.00;;;2.07;;
17151;SDS011;8691;50.828;4.700;2023-09-30T14:08:22;3.50;;;1.80;;
17151;SDS011;8691;50.828;4.700;2023-09-30T14:10:49;4.20;;;1.60;;
17151;SDS011;8691;50.828;4.700;2023-09-30T14:13:17;4.70;;;1.83;;
17151;SDS011;8691;50.828;4.700;2023-09-30T14:15:43;4.20;;;2.00;;
17151;SDS011;8691;50.828;4.700;2023-09-30T14:18:11;4.97;;;1.80;;
17151;SDS011;8691;50.828;4.700;2023-09-30T14:20:38;5.43;;;2.08;;
17151;SDS011;8691;50.828;4.700;2023-09-30T14:23:05;4.40;;;1.93;;
17151;SDS011;8691;50.828;4.700;2023-09-30T14:25:32;5.28;;;1.90;;
17151;SDS011;8691;50.828;4.700;2023-09-30T14:27:59;4.27;;;1.97;;
17151;SDS011;8691;50.828;4.700;2023-09-30T14:30:26;3.87;;;1.80;;
17151;SDS011;8691;50.828;4.700;2023-09-30T14:32:54;5.47;;;2.12;;
17151;SDS011;8691;50.828;4.700;2023-09-30T14:35:21;4.47;;;2.00;;
17151;SDS011;8691;50.828;4.700;2023-09-30T14:37:47;4.13;;;1.90;;
17151;SDS011;8691;50.828;4.700;2023-09-30T14:40:14;3.90;;;1.90;;
17151;SDS011;8691;50.828;4.700;2023-09-30T14:42:42;4.63;;;1.77;;
17151;SDS011;8691;50.828;4.700;2023-09-30T14:45:09;4.83;;;1.80;;
17151;SDS011;8691;50.828;4.700;2023-09-30T14:47:36;4.53;;;1.90;;
17151;SDS011;8691;50.828;4.700;2023-09-30T14:50:05;5.07;;;2.17;;
17151;SDS011;8691;50.828;4.700;2023-09-30T14:52:30;4.73;;;2.00;;
17151;SDS011;8691;50.828;4.700;2023-09-30T14:54:56;3.88;;;1.90;;
17151;SDS011;8691;50.828;4.700;2023-09-30T14:57:25;4.93;;;1.75;;
17151;SDS011;8691;50.828;4.700;2023-09-30T14:59:51;3.77;;;1.63;;
17151;SDS011;8691;50.828;4.700;2023-09-30T15:02:18;4.18;;;1.73;;
17151;SDS011;8691;50.828;4.700;2023-09-30T15:04:45;5.90;;;1.90;;
17151;SDS011;8691;50.828;4.700;2023-09-30T15:07:11;3.20;;;1.50;;
17151;SDS011;8691;50.828;4.700;2023-09-30T15:09:38;3.78;;;1.60;;
17151;SDS011;8691;50.828;4.700;2023-09-30T15:12:05;4.57;;;1.70;;